Terminal Aerodrome Forecast
Issued by NWS Wilmington, OH

Current Version | Previous Version | Graphics & Text | Print | Product List | Glossary On
Versions: 1 2 3 4 5 6 7 8 9 10 11 12 13 14 15 16 17 18 19 20 21 22 23 24 25 26 27 28
660
FTUS41 KILN 200856 AAA
TAFCVG
TAF AMD
KCVG 200856Z 2009/2112 16006KT P6SM SCT070
     FM201200 17006KT P6SM VCSH BKN060
     FM201400 17006KT 6SM -SHRA VCTS OVC050CB
     FM201700 18009KT P6SM BKN070
     FM210000 20006KT P6SM VCSH OVC035
     FM210300 29005KT P6SM VCSH OVC015
     FM210600 35004KT P6SM OVC015
     FM211000 01005KT P6SM OVC006=

USA.gov is the U.S. government's official web portal to all federal, state and local government web resources and services.